Time;durP1;ratioP1;P1;durP2;ratioP2;P2;SDS_P1;SDS_P2;PMS_P1;PMS_P2;Temp;Humidity;BMP_temperature;BMP_pressure;BME280_temperature;BME280_humidity;BME280_pressure;Samples;Min_cycle;Max_cycle;Signal;HPM_P1;HPM_P2
2024/03/06 00:02:02;;;;;;;4.65;4.25;;;;;;;;;;5006811;28;20040;-76
2024/03/06 00:04:28;;;;;;;4.63;4.10;;;;;;;;;;5006693;28;20029;-75
2024/03/06 00:06:55;;;;;;;5.22;4.72;;;;;;;;;;5007300;28;20072;-78
2024/03/06 00:09:21;;;;;;;4.70;4.30;;;;;;;;;;5095442;28;20036;-78
2024/03/06 00:11:47;;;;;;;4.03;3.67;;;;;;;;;;5086068;28;20036;-76
2024/03/06 00:14:12;;;;;;;4.10;3.88;;;;;;;;;;5100055;28;20023;-77
2024/03/06 00:16:38;;;;;;;6.80;4.00;;;;;;;;;;5081886;28;20570;-77
2024/03/06 00:19:04;;;;;;;4.63;4.32;;;;;;;;;;4990357;28;20042;-77
2024/03/06 00:21:30;;;;;;;5.00;4.60;;;;;;;;;;5001562;28;20041;-77
2024/03/06 00:23:56;;;;;;;5.28;4.88;;;;;;;;;;4993681;28;20514;-78
2024/03/06 00:26:22;;;;;;;5.00;4.60;;;;;;;;;;4996668;28;20474;-77
2024/03/06 00:28:48;;;;;;;4.38;4.07;;;;;;;;;;4998145;28;20121;-75
2024/03/06 00:31:14;;;;;;;3.80;3.58;;;;;;;;;;4999408;28;20050;-76
2024/03/06 00:33:40;;;;;;;4.75;4.38;;;;;;;;;;5028540;28;20578;-76
2024/03/06 00:36:06;;;;;;;4.20;3.88;;;;;;;;;;4999791;28;20043;-76
2024/03/06 00:38:32;;;;;;;4.22;3.90;;;;;;;;;;4982448;28;20054;-76
2024/03/06 00:40:58;;;;;;;7.22;4.65;;;;;;;;;;4991017;28;20500;-75
2024/03/06 00:43:24;;;;;;;4.80;4.40;;;;;;;;;;4964689;28;20576;-77
2024/03/06 00:45:50;;;;;;;7.53;4.85;;;;;;;;;;4964465;28;20124;-76
2024/03/06 00:48:16;;;;;;;4.60;4.20;;;;;;;;;;4996304;28;20513;-76
2024/03/06 00:50:42;;;;;;;6.45;4.60;;;;;;;;;;5001324;28;20086;-78
2024/03/06 00:53:08;;;;;;;5.28;4.78;;;;;;;;;;4980419;28;20091;-76
2024/03/06 00:55:34;;;;;;;5.50;5.00;;;;;;;;;;4998921;28;20091;-76
2024/03/06 00:57:59;;;;;;;5.03;4.32;;;;;;;;;;4988215;28;20078;-77
2024/03/06 01:00:25;;;;;;;6.78;4.95;;;;;;;;;;4994689;28;20417;-77
2024/03/06 01:02:51;;;;;;;6.65;4.53;;;;;;;;;;5020531;28;20079;-78
2024/03/06 01:05:17;;;;;;;4.88;4.47;;;;;;;;;;5001889;28;20532;-77
2024/03/06 01:07:43;;;;;;;5.50;4.40;;;;;;;;;;4989575;28;20061;-77
2024/03/06 01:10:09;;;;;;;6.72;4.63;;;;;;;;;;5004227;28;20030;-78
2024/03/06 01:12:35;;;;;;;7.60;5.40;;;;;;;;;;5002869;28;20038;-77
2024/03/06 01:15:01;;;;;;;5.07;4.68;;;;;;;;;;5019265;28;20541;-76
2024/03/06 01:17:29;;;;;;;5.45;4.90;;;;;;;;;;5011092;28;20037;-75
2024/03/06 01:19:55;;;;;;;4.55;4.22;;;;;;;;;;5016614;28;20082;-76
2024/03/06 01:22:21;;;;;;;6.00;4.53;;;;;;;;;;4999982;28;20078;-74
2024/03/06 01:24:48;;;;;;;5.07;4.43;;;;;;;;;;5054764;28;20063;-75
2024/03/06 01:27:17;;;;;;;6.18;5.47;;;;;;;;;;5035568;28;20046;-77
2024/03/06 01:29:43;;;;;;;6.15;5.55;;;;;;;;;;5016481;28;20511;-77
2024/03/06 01:32:10;;;;;;;6.45;5.85;;;;;;;;;;5019345;28;20064;-78
2024/03/06 01:34:36;;;;;;;5.80;5.20;;;;;;;;;;4988731;28;20034;-77
2024/03/06 01:37:02;;;;;;;6.35;5.70;;;;;;;;;;5019697;28;20037;-76
2024/03/06 01:39:28;;;;;;;8.35;5.50;;;;;;;;;;5018478;28;20175;-76
2024/03/06 01:41:54;;;;;;;6.70;5.18;;;;;;;;;;5023849;28;20038;-77
2024/03/06 01:44:20;;;;;;;6.25;5.70;;;;;;;;;;5026277;27;20030;-77
2024/03/06 01:46:46;;;;;;;6.30;5.75;;;;;;;;;;5024234;28;20103;-77
2024/03/06 01:49:13;;;;;;;6.70;6.10;;;;;;;;;;5043100;28;20046;-77
2024/03/06 01:51:40;;;;;;;8.18;6.45;;;;;;;;;;5027462;28;20040;-77
2024/03/06 01:54:06;;;;;;;6.95;6.35;;;;;;;;;;5026282;28;20034;-75
2024/03/06 01:56:33;;;;;;;6.10;5.47;;;;;;;;;;5024015;28;20140;-77
2024/03/06 01:58:59;;;;;;;6.50;5.90;;;;;;;;;;5042355;28;20065;-77
2024/03/06 02:01:25;;;;;;;5.38;4.88;;;;;;;;;;5022888;28;20041;-75
2024/03/06 02:03:51;;;;;;;6.53;5.57;;;;;;;;;;5004830;28;20484;-77
2024/03/06 02:06:19;;;;;;;5.70;4.60;;;;;;;;;;5041263;28;20034;-77
2024/03/06 02:08:48;;;;;;;5.90;4.40;;;;;;;;;;5030775;28;20568;-77
2024/03/06 02:11:15;;;;;;;6.40;5.05;;;;;;;;;;5056994;28;20567;-77
2024/03/06 02:13:41;;;;;;;5.13;4.70;;;;;;;;;;5028689;27;20530;-77
2024/03/06 02:16:07;;;;;;;7.20;4.05;;;;;;;;;;5039341;28;20033;-77
2024/03/06 02:18:33;;;;;;;5.05;4.55;;;;;;;;;;5044850;28;20444;-78
2024/03/06 02:20:59;;;;;;;3.88;3.58;;;;;;;;;;5033287;27;20037;-78
2024/03/06 02:23:25;;;;;;;6.28;4.32;;;;;;;;;;5024088;27;20053;-78
2024/03/06 02:25:51;;;;;;;4.28;3.97;;;;;;;;;;5026326;28;20036;-77
2024/03/06 02:28:20;;;;;;;5.30;4.80;;;;;;;;;;4994400;28;20054;-77
2024/03/06 02:30:50;;;;;;;4.68;3.88;;;;;;;;;;5033860;28;20335;-76
2024/03/06 02:33:17;;;;;;;4.82;4.45;;;;;;;;;;5023571;28;20045;-78
2024/03/06 02:35:44;;;;;;;4.50;4.20;;;;;;;;;;5012423;28;20068;-77
2024/03/06 02:38:10;;;;;;;4.95;4.18;;;;;;;;;;5024183;28;20049;-76
2024/03/06 02:40:36;;;;;;;5.28;4.43;;;;;;;;;;5051656;28;20038;-77
2024/03/06 02:43:02;;;;;;;8.63;4.53;;;;;;;;;;5006492;28;20029;-77
2024/03/06 02:45:28;;;;;;;5.93;4.40;;;;;;;;;;5019824;28;20106;-77
2024/03/06 02:47:54;;;;;;;4.55;4.15;;;;;;;;;;5024322;28;20050;-78
2024/03/06 02:50:20;;;;;;;5.32;4.90;;;;;;;;;;5025038;28;20078;-77
2024/03/06 02:52:47;;;;;;;5.93;5.35;;;;;;;;;;5025193;28;20037;-76
2024/03/06 02:55:13;;;;;;;5.90;5.40;;;;;;;;;;5010093;28;20090;-77
2024/03/06 02:57:39;;;;;;;8.52;5.15;;;;;;;;;;5030112;28;20121;-78
2024/03/06 03:00:05;;;;;;;5.88;5.35;;;;;;;;;;5018029;28;20033;-77
2024/03/06 03:02:31;;;;;;;6.35;5.00;;;;;;;;;;5021902;28;20053;-78
2024/03/06 03:04:57;;;;;;;4.65;4.25;;;;;;;;;;5056390;28;20086;-78
2024/03/06 03:07:23;;;;;;;6.97;6.35;;;;;;;;;;5047731;28;20068;-78
2024/03/06 03:09:49;;;;;;;7.50;6.72;;;;;;;;;;5037424;28;20065;-77
2024/03/06 03:12:15;;;;;;;11.20;7.13;;;;;;;;;;5036078;28;20026;-77
2024/03/06 03:14:41;;;;;;;7.88;6.20;;;;;;;;;;5041600;28;20055;-77
2024/03/06 03:17:07;;;;;;;11.57;7.95;;;;;;;;;;5012832;28;20034;-76
2024/03/06 03:19:33;;;;;;;6.28;5.68;;;;;;;;;;5026473;28;20854;-76
2024/03/06 03:21:59;;;;;;;7.07;6.43;;;;;;;;;;5021042;28;20037;-77
2024/03/06 03:24:27;;;;;;;6.32;5.85;;;;;;;;;;5035940;28;20407;-78
2024/03/06 03:26:53;;;;;;;4.65;4.35;;;;;;;;;;5027927;28;20105;-79
2024/03/06 03:29:18;;;;;;;3.63;3.42;;;;;;;;;;5013212;28;20121;-78
2024/03/06 03:31:44;;;;;;;4.93;4.53;;;;;;;;;;5026024;28;20061;-78
2024/03/06 03:34:10;;;;;;;6.63;5.78;;;;;;;;;;5012855;28;20500;-77
2024/03/06 03:36:40;;;;;;;4.30;4.03;;;;;;;;;;5005590;28;20041;-77
2024/03/06 03:39:07;;;;;;;7.88;6.85;;;;;;;;;;5016383;28;20063;-77
2024/03/06 03:41:32;;;;;;;7.30;6.22;;;;;;;;;;5000440;28;20064;-78
2024/03/06 03:43:59;;;;;;;4.82;4.40;;;;;;;;;;5041438;28;20466;-77
2024/03/06 03:46:25;;;;;;;6.65;5.40;;;;;;;;;;4991797;28;20037;-76
2024/03/06 03:48:50;;;;;;;7.57;4.63;;;;;;;;;;5016897;28;20156;-77
2024/03/06 03:51:16;;;;;;;14.80;6.13;;;;;;;;;;5024558;28;20025;-78
2024/03/06 03:53:42;;;;;;;7.10;6.15;;;;;;;;;;5023427;28;20033;-78
2024/03/06 03:56:08;;;;;;;9.10;6.93;;;;;;;;;;5024209;28;20503;-78
2024/03/06 03:58:34;;;;;;;6.20;5.60;;;;;;;;;;5013652;28;20045;-77
2024/03/06 04:01:00;;;;;;;6.28;4.63;;;;;;;;;;5022533;28;20171;-78
2024/03/06 04:03:26;;;;;;;10.43;5.97;;;;;;;;;;5020220;28;20084;-78
2024/03/06 04:05:52;;;;;;;5.20;3.13;;;;;;;;;;5004821;28;20095;-78
2024/03/06 04:08:18;;;;;;;10.40;4.93;;;;;;;;;;5024716;27;20537;-77
2024/03/06 04:10:46;;;;;;;50.95;25.55;;;;;;;;;;5032907;28;20037;-79
2024/03/06 04:13:12;;;;;;;26.38;7.90;;;;;;;;;;5001968;28;20039;-78
2024/03/06 04:15:39;;;;;;;11.95;6.78;;;;;;;;;;5009662;28;20055;-78
2024/03/06 04:18:04;;;;;;;15.15;6.97;;;;;;;;;;5054938;28;20135;-73
2024/03/06 04:20:30;;;;;;;5.55;4.43;;;;;;;;;;5101427;28;20111;-71
2024/03/06 04:22:56;;;;;;;9.23;4.38;;;;;;;;;;5100493;28;20124;-72
2024/03/06 04:25:23;;;;;;;5.88;3.47;;;;;;;;;;5086794;28;20063;-73
2024/03/06 04:27:49;;;;;;;18.08;5.90;;;;;;;;;;5040555;28;20062;-72
2024/03/06 04:30:15;;;;;;;13.35;4.20;;;;;;;;;;4995428;28;20552;-72
2024/03/06 04:32:41;;;;;;;9.98;6.60;;;;;;;;;;4984865;28;20039;-71
2024/03/06 04:35:09;;;;;;;9.52;5.47;;;;;;;;;;5005280;28;20509;-72
2024/03/06 04:37:35;;;;;;;11.70;2.60;;;;;;;;;;4976660;28;20046;-72
2024/03/06 04:40:02;;;;;;;6.97;4.72;;;;;;;;;;5001112;28;20133;-72
2024/03/06 04:42:29;;;;;;;6.85;4.30;;;;;;;;;;4993983;28;20037;-71
2024/03/06 04:44:55;;;;;;;7.20;4.50;;;;;;;;;;4997532;28;20038;-73
2024/03/06 04:47:21;;;;;;;4.90;4.45;;;;;;;;;;4998193;28;20058;-73
2024/03/06 04:49:47;;;;;;;4.53;3.90;;;;;;;;;;5045252;28;20125;-72
2024/03/06 04:52:12;;;;;;;8.95;4.55;;;;;;;;;;5047908;28;20155;-73
2024/03/06 04:54:39;;;;;;;5.55;4.93;;;;;;;;;;4994665;28;20049;-73
2024/03/06 04:57:05;;;;;;;7.88;4.90;;;;;;;;;;5004014;28;20131;-72
2024/03/06 04:59:30;;;;;;;5.30;4.15;;;;;;;;;;4996707;28;20516;-73
2024/03/06 05:01:56;;;;;;;19.35;10.35;;;;;;;;;;5001026;28;20354;-73
2024/03/06 05:04:22;;;;;;;11.45;5.80;;;;;;;;;;4991212;28;20170;-70
2024/03/06 05:06:48;;;;;;;14.63;5.53;;;;;;;;;;4990801;28;20132;-71
2024/03/06 05:09:14;;;;;;;11.73;7.38;;;;;;;;;;5076871;27;20555;-74
2024/03/06 05:11:40;;;;;;;8.70;6.25;;;;;;;;;;5110789;28;20506;-72
2024/03/06 05:14:07;;;;;;;7.38;6.68;;;;;;;;;;5092140;28;20043;-72
2024/03/06 05:16:32;;;;;;;6.03;5.55;;;;;;;;;;5111541;28;20034;-72
2024/03/06 05:18:59;;;;;;;4.75;4.13;;;;;;;;;;5037074;28;20128;-72
2024/03/06 05:21:25;;;;;;;4.72;4.38;;;;;;;;;;5023145;28;20076;-72
2024/03/06 05:23:52;;;;;;;10.32;5.80;;;;;;;;;;5044738;28;20033;-72
2024/03/06 05:26:18;;;;;;;5.80;5.28;;;;;;;;;;5022198;28;20033;-72
2024/03/06 05:28:43;;;;;;;5.95;5.40;;;;;;;;;;5001475;28;20599;-72
2024/03/06 05:31:19;;;;;;;8.68;6.07;;;;;;;;;;5002309;28;20034;-73
2024/03/06 05:33:49;;;;;;;7.00;4.78;;;;;;;;;;5079045;27;20693;-72
2024/03/06 05:36:15;;;;;;;6.45;5.85;;;;;;;;;;5046988;27;20072;-73
2024/03/06 05:38:41;;;;;;;5.80;5.30;;;;;;;;;;4997801;28;20057;-71
2024/03/06 05:41:08;;;;;;;6.55;5.95;;;;;;;;;;5004300;28;20038;-71
2024/03/06 05:43:34;;;;;;;7.32;5.70;;;;;;;;;;5018726;28;20061;-70
2024/03/06 05:46:00;;;;;;;9.65;6.20;;;;;;;;;;5001063;28;20061;-72
2024/03/06 05:48:26;;;;;;;7.47;6.03;;;;;;;;;;4988417;28;20077;-72
2024/03/06 05:50:52;;;;;;;11.68;5.53;;;;;;;;;;5004975;28;20150;-72
2024/03/06 05:53:18;;;;;;;6.97;5.22;;;;;;;;;;5005841;28;20030;-72
2024/03/06 05:55:44;;;;;;;5.55;5.00;;;;;;;;;;5010559;27;20512;-72
2024/03/06 05:58:10;;;;;;;5.25;4.75;;;;;;;;;;4999449;28;20480;-71
2024/03/06 06:00:36;;;;;;;4.60;4.20;;;;;;;;;;4997790;28;20034;-72
2024/03/06 06:03:02;;;;;;;6.45;5.75;;;;;;;;;;5020536;28;20527;-72
2024/03/06 06:05:29;;;;;;;5.68;4.88;;;;;;;;;;5009747;28;20044;-71
2024/03/06 06:07:55;;;;;;;4.95;4.40;;;;;;;;;;5011970;28;20050;-72
2024/03/06 06:10:20;;;;;;;8.77;5.13;;;;;;;;;;5018510;28;20041;-72
2024/03/06 06:12:47;;;;;;;14.90;4.60;;;;;;;;;;5016450;28;20041;-72
2024/03/06 06:15:12;;;;;;;5.55;4.50;;;;;;;;;;5018548;28;20561;-72
2024/03/06 06:17:39;;;;;;;3.88;3.45;;;;;;;;;;5023362;28;20034;-72
2024/03/06 06:20:13;;;;;;;4.20;3.88;;;;;;;;;;4971881;28;20124;-71
2024/03/06 06:22:39;;;;;;;6.45;4.88;;;;;;;;;;5041204;28;20406;-72
2024/03/06 06:25:07;;;;;;;10.77;5.05;;;;;;;;;;5018139;28;20040;-73
2024/03/06 06:27:33;;;;;;;6.63;4.78;;;;;;;;;;5044663;28;20530;-74
2024/03/06 06:29:59;;;;;;;15.63;5.43;;;;;;;;;;5087607;28;20035;-74
2024/03/06 06:32:24;;;;;;;6.32;4.82;;;;;;;;;;5082642;28;20023;-75
2024/03/06 06:34:51;;;;;;;5.22;4.60;;;;;;;;;;5094946;28;20043;-73
2024/03/06 06:37:19;;;;;;;5.95;4.78;;;;;;;;;;5046418;28;20155;-73
2024/03/06 06:39:45;;;;;;;4.45;4.03;;;;;;;;;;5019474;28;20033;-73
2024/03/06 06:42:11;;;;;;;5.10;4.57;;;;;;;;;;4995206;28;20037;-72
2024/03/06 06:44:36;;;;;;;4.95;4.43;;;;;;;;;;5006597;27;20044;-72
2024/03/06 06:47:02;;;;;;;13.30;4.78;;;;;;;;;;4988939;28;20109;-72
2024/03/06 06:49:28;;;;;;;10.85;6.35;;;;;;;;;;4989532;28;20029;-71
2024/03/06 06:51:54;;;;;;;11.30;6.10;;;;;;;;;;5040533;28;20034;-72
2024/03/06 06:54:20;;;;;;;10.05;5.38;;;;;;;;;;5034038;28;20547;-72
2024/03/06 06:56:45;;;;;;;17.05;8.73;;;;;;;;;;5018579;28;20033;-72
2024/03/06 06:59:13;;;;;;;5.28;4.78;;;;;;;;;;5003428;28;20058;-72
2024/03/06 07:01:40;;;;;;;7.20;5.20;;;;;;;;;;4999681;28;20641;-71
2024/03/06 07:04:06;;;;;;;6.13;4.47;;;;;;;;;;5048911;28;20042;-72
2024/03/06 07:06:32;;;;;;;8.57;4.68;;;;;;;;;;5001531;28;20030;-72
2024/03/06 07:08:58;;;;;;;5.50;4.68;;;;;;;;;;4995268;28;20512;-71
2024/03/06 07:11:24;;;;;;;9.13;4.32;;;;;;;;;;5018484;28;20082;-73
2024/03/06 07:13:49;;;;;;;3.33;3.13;;;;;;;;;;5008486;28;20522;-73
2024/03/06 07:16:15;;;;;;;6.80;5.28;;;;;;;;;;4999585;28;20034;-74
2024/03/06 07:18:41;;;;;;;10.35;5.65;;;;;;;;;;5005896;28;20118;-73
2024/03/06 07:21:07;;;;;;;11.85;5.15;;;;;;;;;;4981127;28;20030;-73
2024/03/06 07:23:33;;;;;;;3.78;3.35;;;;;;;;;;5003805;28;20240;-72
2024/03/06 07:25:59;;;;;;;3.95;3.63;;;;;;;;;;4980924;28;20034;-73
2024/03/06 07:28:25;;;;;;;9.07;4.18;;;;;;;;;;5008339;28;20543;-71
2024/03/06 07:30:51;;;;;;;9.82;4.75;;;;;;;;;;4995602;28;20030;-72
2024/03/06 07:33:17;;;;;;;5.85;4.85;;;;;;;;;;5022167;28;20034;-72
2024/03/06 07:35:43;;;;;;;8.63;4.60;;;;;;;;;;5021903;28;20057;-72
2024/03/06 07:38:09;;;;;;;20.58;5.03;;;;;;;;;;5011958;28;20034;-72
2024/03/06 07:40:35;;;;;;;7.30;5.07;;;;;;;;;;5001961;28;20069;-72
2024/03/06 07:43:01;;;;;;;8.45;7.65;;;;;;;;;;5002896;28;20085;-72
2024/03/06 07:45:27;;;;;;;13.38;6.82;;;;;;;;;;4994941;28;20034;-71
2024/03/06 07:47:53;;;;;;;5.32;4.82;;;;;;;;;;4996637;28;20046;-71
2024/03/06 07:50:19;;;;;;;3.60;3.30;;;;;;;;;;4987345;28;20037;-72
2024/03/06 07:52:45;;;;;;;30.98;17.30;;;;;;;;;;5004457;28;20049;-72
2024/03/06 07:55:11;;;;;;;6.45;4.53;;;;;;;;;;5003338;28;20038;-72
2024/03/06 07:57:38;;;;;;;25.40;10.50;;;;;;;;;;5005176;28;20096;-70
2024/03/06 08:00:14;;;;;;;15.10;7.38;;;;;;;;;;5006759;28;20037;-72
2024/03/06 08:02:43;;;;;;;4.15;3.60;;;;;;;;;;5022566;28;20064;-71
2024/03/06 08:05:14;;;;;;;10.70;4.63;;;;;;;;;;5006187;28;20068;-71
2024/03/06 08:07:44;;;;;;;8.07;4.72;;;;;;;;;;5015644;28;20080;-72
2024/03/06 08:10:13;;;;;;;8.57;5.30;;;;;;;;;;4995686;28;20577;-72
2024/03/06 08:12:42;;;;;;;10.85;5.40;;;;;;;;;;5024713;28;20084;-71
2024/03/06 08:15:09;;;;;;;8.68;4.55;;;;;;;;;;5011818;28;20029;-72
2024/03/06 08:17:35;;;;;;;6.35;5.70;;;;;;;;;;5035818;28;20132;-72
2024/03/06 08:20:05;;;;;;;7.68;5.32;;;;;;;;;;5003591;28;20034;-71
2024/03/06 08:22:31;;;;;;;9.50;4.75;;;;;;;;;;4993242;28;20030;-72
2024/03/06 08:24:57;;;;;;;20.58;5.50;;;;;;;;;;5004554;28;20029;-72
2024/03/06 08:27:23;;;;;;;5.72;4.95;;;;;;;;;;5003511;28;20049;-72
2024/03/06 08:29:49;;;;;;;12.13;5.88;;;;;;;;;;5023712;28;20516;-73
2024/03/06 08:32:14;;;;;;;9.50;5.28;;;;;;;;;;5025180;28;20030;-73
2024/03/06 08:34:40;;;;;;;14.30;7.70;;;;;;;;;;4992335;28;20076;-72
2024/03/06 08:37:07;;;;;;;7.50;5.10;;;;;;;;;;5003412;28;20029;-72
2024/03/06 08:39:33;;;;;;;6.47;5.35;;;;;;;;;;5021556;28;20612;-72
2024/03/06 08:42:00;;;;;;;5.57;4.40;;;;;;;;;;5004504;28;20029;-71
2024/03/06 08:44:25;;;;;;;12.25;8.10;;;;;;;;;;5020600;28;20033;-71
2024/03/06 08:46:51;;;;;;;3.92;3.42;;;;;;;;;;5008663;28;20052;-72
2024/03/06 08:49:17;;;;;;;6.38;4.95;;;;;;;;;;5019624;28;20046;-72
2024/03/06 08:51:42;;;;;;;8.18;4.68;;;;;;;;;;5023513;27;20105;-71
2024/03/06 08:54:10;;;;;;;7.88;4.68;;;;;;;;;;5008140;28;20452;-71
2024/03/06 08:56:36;;;;;;;12.90;7.25;;;;;;;;;;5003935;28;20033;-72
2024/03/06 08:59:02;;;;;;;6.57;4.40;;;;;;;;;;5031155;28;20060;-72
2024/03/06 09:01:28;;;;;;;13.35;5.28;;;;;;;;;;5024001;28;20050;-73
2024/03/06 09:03:54;;;;;;;9.23;4.47;;;;;;;;;;5034907;28;20187;-72
2024/03/06 09:06:21;;;;;;;7.05;4.78;;;;;;;;;;5022439;28;20034;-72
2024/03/06 09:08:48;;;;;;;6.75;5.40;;;;;;;;;;4995161;27;20057;-71
2024/03/06 09:11:14;;;;;;;13.20;5.57;;;;;;;;;;5009405;28;20083;-72
2024/03/06 09:13:40;;;;;;;10.60;4.68;;;;;;;;;;5029012;28;20446;-73
2024/03/06 09:16:05;;;;;;;6.95;5.10;;;;;;;;;;5036764;28;20090;-71
2024/03/06 09:18:31;;;;;;;10.15;4.90;;;;;;;;;;5001302;28;20427;-74
2024/03/06 09:20:57;;;;;;;8.85;4.75;;;;;;;;;;4988463;28;20122;-72
2024/03/06 09:23:23;;;;;;;5.60;4.30;;;;;;;;;;5004111;27;20515;-72
2024/03/06 09:25:49;;;;;;;5.13;4.25;;;;;;;;;;5018147;28;20041;-72
2024/03/06 09:28:15;;;;;;;6.40;3.70;;;;;;;;;;5021987;28;20265;-72
2024/03/06 09:30:41;;;;;;;4.40;4.00;;;;;;;;;;5080241;28;20026;-72
2024/03/06 09:33:07;;;;;;;7.15;4.82;;;;;;;;;;5032731;28;20036;-72
2024/03/06 09:35:33;;;;;;;4.40;3.67;;;;;;;;;;5024989;28;20029;-72
2024/03/06 09:38:00;;;;;;;5.13;4.00;;;;;;;;;;5021451;28;20064;-72
2024/03/06 09:40:26;;;;;;;8.50;4.63;;;;;;;;;;5021520;28;20127;-72
2024/03/06 09:42:53;;;;;;;4.57;3.97;;;;;;;;;;4979027;28;20034;-72
2024/03/06 09:45:21;;;;;;;6.93;3.60;;;;;;;;;;4984860;28;20037;-72
2024/03/06 09:47:47;;;;;;;5.35;4.22;;;;;;;;;;5011313;28;20080;-72
2024/03/06 09:50:13;;;;;;;5.80;4.25;;;;;;;;;;5030826;28;20450;-73
2024/03/06 09:52:39;;;;;;;5.07;3.67;;;;;;;;;;5015200;27;20141;-72
2024/03/06 09:55:09;;;;;;;5.65;4.38;;;;;;;;;;4994863;28;20030;-72
2024/03/06 09:57:35;;;;;;;5.27;4.30;;;;;;;;;;5001062;28;20034;-72
2024/03/06 10:00:01;;;;;;;4.68;3.88;;;;;;;;;;5029845;28;20145;-72
2024/03/06 10:02:31;;;;;;;6.50;4.50;;;;;;;;;;5031737;27;20498;-72
2024/03/06 10:04:57;;;;;;;4.07;3.30;;;;;;;;;;5030889;28;20167;-72
2024/03/06 10:07:22;;;;;;;5.15;4.43;;;;;;;;;;5025887;28;20516;-72
2024/03/06 10:09:48;;;;;;;7.50;5.00;;;;;;;;;;5005229;28;20033;-72
2024/03/06 10:12:18;;;;;;;5.10;3.65;;;;;;;;;;5001999;28;20044;-72
2024/03/06 10:14:51;;;;;;;6.28;3.33;;;;;;;;;;5034437;27;20190;-72
2024/03/06 10:17:22;;;;;;;9.25;4.57;;;;;;;;;;5021499;28;20045;-72
2024/03/06 10:19:51;;;;;;;7.05;4.18;;;;;;;;;;5005492;28;20021;-72
2024/03/06 10:22:17;;;;;;;4.15;3.70;;;;;;;;;;5033110;28;20033;-71
2024/03/06 10:24:44;;;;;;;8.82;4.55;;;;;;;;;;5027400;28;20029;-72
2024/03/06 10:27:14;;;;;;;9.25;3.47;;;;;;;;;;5031896;28;20058;-72
2024/03/06 10:29:39;;;;;;;9.45;5.38;;;;;;;;;;5015474;28;20025;-72
2024/03/06 10:32:05;;;;;;;5.75;5.07;;;;;;;;;;5009138;28;20399;-72
2024/03/06 10:34:31;;;;;;;4.60;4.10;;;;;;;;;;5026069;28;20029;-72
2024/03/06 10:36:58;;;;;;;8.90;4.00;;;;;;;;;;5013286;28;20487;-72
2024/03/06 10:39:24;;;;;;;6.07;4.40;;;;;;;;;;5002835;28;20033;-71
2024/03/06 10:41:54;;;;;;;6.72;4.25;;;;;;;;;;5031172;28;20060;-71
2024/03/06 10:44:22;;;;;;;4.47;3.88;;;;;;;;;;5028070;28;20029;-72
2024/03/06 10:46:53;;;;;;;9.10;5.28;;;;;;;;;;5029394;28;20144;-72
2024/03/06 10:49:19;;;;;;;15.00;5.22;;;;;;;;;;5034787;28;20515;-73
2024/03/06 10:51:44;;;;;;;8.18;4.05;;;;;;;;;;5031569;28;20022;-72
2024/03/06 10:54:11;;;;;;;4.68;2.90;;;;;;;;;;5013745;28;20070;-72
2024/03/06 10:56:41;;;;;;;4.30;3.88;;;;;;;;;;5007464;28;20039;-72
2024/03/06 10:59:08;;;;;;;5.60;3.67;;;;;;;;;;5031291;28;20167;-72
2024/03/06 11:01:34;;;;;;;5.38;3.97;;;;;;;;;;5010033;28;20034;-72
2024/03/06 11:04:00;;;;;;;4.68;3.83;;;;;;;;;;5014291;28;20037;-72
2024/03/06 11:06:26;;;;;;;6.45;4.28;;;;;;;;;;5027526;28;20415;-72
2024/03/06 11:08:52;;;;;;;5.65;4.28;;;;;;;;;;4996590;28;20046;-72
2024/03/06 11:11:21;;;;;;;7.38;4.68;;;;;;;;;;5025109;28;20052;-72
2024/03/06 11:13:47;;;;;;;4.88;3.53;;;;;;;;;;5030916;27;20033;-72
2024/03/06 11:16:13;;;;;;;6.18;4.30;;;;;;;;;;5026691;28;20037;-72
2024/03/06 11:18:39;;;;;;;7.18;4.47;;;;;;;;;;5035694;28;20049;-73
2024/03/06 11:21:11;;;;;;;14.13;4.47;;;;;;;;;;5031171;28;20041;-72
2024/03/06 11:23:47;;;;;;;3.70;3.35;;;;;;;;;;5025427;28;20120;-72
2024/03/06 11:26:13;;;;;;;7.72;4.38;;;;;;;;;;5020875;28;20463;-72
2024/03/06 11:28:41;;;;;;;4.47;4.07;;;;;;;;;;4990113;28;20137;-72
2024/03/06 11:31:11;;;;;;;4.20;3.70;;;;;;;;;;5009214;28;20071;-72
2024/03/06 11:33:38;;;;;;;4.70;3.70;;;;;;;;;;5031037;28;20517;-72
2024/03/06 11:36:22;;;;;;;4.80;3.88;;;;;;;;;;5026095;28;20720;-72
2024/03/06 11:38:52;;;;;;;11.57;3.95;;;;;;;;;;5005231;28;20070;-72
2024/03/06 11:41:19;;;;;;;5.65;4.40;;;;;;;;;;4993512;28;20065;-72
2024/03/06 11:43:46;;;;;;;5.88;3.47;;;;;;;;;;4992139;28;20102;-71
2024/03/06 11:46:12;;;;;;;5.38;4.13;;;;;;;;;;5011463;28;20033;-72
2024/03/06 11:48:38;;;;;;;7.18;3.90;;;;;;;;;;5003531;28;20058;-72
2024/03/06 11:51:07;;;;;;;3.75;3.00;;;;;;;;;;5012194;28;21017;-72
2024/03/06 11:53:33;;;;;;;5.63;3.92;;;;;;;;;;4990535;28;20033;-72
2024/03/06 11:55:59;;;;;;;5.55;3.85;;;;;;;;;;4995364;28;20391;-73
2024/03/06 11:58:25;;;;;;;4.88;3.20;;;;;;;;;;5008019;27;20045;-72
2024/03/06 12:00:51;;;;;;;4.20;3.72;;;;;;;;;;4998390;28;20037;-72
2024/03/06 12:03:17;;;;;;;13.18;3.35;;;;;;;;;;5000133;28;20030;-72
2024/03/06 12:05:43;;;;;;;6.75;3.80;;;;;;;;;;5020095;28;20052;-73
2024/03/06 12:08:09;;;;;;;4.40;4.00;;;;;;;;;;5000341;28;20057;-71
2024/03/06 12:10:38;;;;;;;8.90;3.75;;;;;;;;;;5017052;28;20026;-72
2024/03/06 12:13:04;;;;;;;7.93;3.60;;;;;;;;;;4999215;28;20485;-72
2024/03/06 12:15:29;;;;;;;4.25;3.85;;;;;;;;;;5006206;28;20045;-72
2024/03/06 12:17:56;;;;;;;4.20;3.45;;;;;;;;;;4994827;28;20046;-72
2024/03/06 12:20:23;;;;;;;4.68;3.50;;;;;;;;;;5019847;28;20053;-72
2024/03/06 12:22:49;;;;;;;6.63;3.80;;;;;;;;;;4999481;28;20039;-71
2024/03/06 12:25:19;;;;;;;7.53;4.45;;;;;;;;;;5000677;28;20037;-72
2024/03/06 12:27:45;;;;;;;8.25;3.53;;;;;;;;;;5014508;28;20513;-72
2024/03/06 12:30:12;;;;;;;3.78;3.38;;;;;;;;;;5016398;28;20087;-72
2024/03/06 12:32:39;;;;;;;4.68;3.72;;;;;;;;;;5019446;28;20061;-72
2024/03/06 12:35:05;;;;;;;2.97;2.75;;;;;;;;;;5012456;28;20490;-72
2024/03/06 12:37:31;;;;;;;4.30;2.80;;;;;;;;;;5016166;28;20041;-72
2024/03/06 12:39:57;;;;;;;3.05;2.83;;;;;;;;;;5002644;28;20515;-71
2024/03/06 12:42:24;;;;;;;6.60;3.40;;;;;;;;;;5017405;28;20111;-72
2024/03/06 12:44:50;;;;;;;3.65;3.35;;;;;;;;;;5015279;28;20045;-71
2024/03/06 12:47:16;;;;;;;3.80;3.22;;;;;;;;;;4998680;28;20083;-72
2024/03/06 12:50:00;;;;;;;5.30;2.97;;;;;;;;;;5019610;28;20485;-72
2024/03/06 12:52:26;;;;;;;5.50;3.28;;;;;;;;;;5018757;28;20018;-72
2024/03/06 12:54:52;;;;;;;13.73;4.10;;;;;;;;;;5016507;28;20038;-72
2024/03/06 12:57:18;;;;;;;3.97;3.55;;;;;;;;;;5012249;28;20670;-71
2024/03/06 12:59:44;;;;;;;4.55;3.72;;;;;;;;;;5096871;28;20032;-72
2024/03/06 13:02:10;;;;;;;4.63;3.63;;;;;;;;;;5082693;28;20086;-71
2024/03/06 13:04:36;;;;;;;7.88;3.47;;;;;;;;;;5098602;28;20439;-72
2024/03/06 13:07:02;;;;;;;9.93;4.20;;;;;;;;;;5101133;28;20040;-72
2024/03/06 13:09:28;;;;;;;6.05;3.92;;;;;;;;;;5086522;28;20028;-72
2024/03/06 13:11:54;;;;;;;8.50;4.07;;;;;;;;;;5102321;28;20039;-72
2024/03/06 13:14:20;;;;;;;7.03;3.47;;;;;;;;;;5100722;28;20028;-71
2024/03/06 13:16:46;;;;;;;7.10;4.72;;;;;;;;;;5103677;28;20035;-72
2024/03/06 13:19:12;;;;;;;6.65;3.65;;;;;;;;;;4987907;28;20042;-72
2024/03/06 13:21:38;;;;;;;3.53;3.10;;;;;;;;;;4986906;28;20386;-72
2024/03/06 13:24:04;;;;;;;5.88;2.72;;;;;;;;;;4982228;28;20034;-71
2024/03/06 13:26:30;;;;;;;5.15;3.17;;;;;;;;;;4970471;28;20677;-72
2024/03/06 13:28:56;;;;;;;8.57;3.72;;;;;;;;;;5013562;28;20481;-72
2024/03/06 13:31:22;;;;;;;7.15;3.25;;;;;;;;;;5017031;28;20508;-72
2024/03/06 13:33:48;;;;;;;5.38;3.38;;;;;;;;;;5021556;28;20044;-72
2024/03/06 13:36:33;;;;;;;8.30;3.88;;;;;;;;;;5022405;28;20034;-72
2024/03/06 13:38:59;;;;;;;4.70;3.38;;;;;;;;;;5019270;28;20042;-72
2024/03/06 13:41:25;;;;;;;4.35;3.03;;;;;;;;;;5014171;28;20052;-72
2024/03/06 13:43:51;;;;;;;3.58;3.28;;;;;;;;;;5019794;27;20028;-72
2024/03/06 13:46:17;;;;;;;3.55;3.25;;;;;;;;;;5019126;28;20086;-72
2024/03/06 13:48:43;;;;;;;5.85;3.55;;;;;;;;;;5009698;28;20069;-72
2024/03/06 13:51:09;;;;;;;5.50;3.35;;;;;;;;;;5022025;28;20442;-71
2024/03/06 13:53:35;;;;;;;4.45;3.17;;;;;;;;;;5019566;27;20081;-72
2024/03/06 13:56:00;;;;;;;3.85;3.42;;;;;;;;;;5019998;28;20037;-72
2024/03/06 13:58:26;;;;;;;7.78;3.45;;;;;;;;;;4988606;28;20061;-71
2024/03/06 14:00:52;;;;;;;17.25;4.18;;;;;;;;;;5009931;28;20090;-71
2024/03/06 14:03:18;;;;;;;14.90;4.43;;;;;;;;;;5009611;28;20034;-72
2024/03/06 14:05:44;;;;;;;10.55;3.58;;;;;;;;;;5021694;28;20047;-72
2024/03/06 14:08:11;;;;;;;7.43;4.70;;;;;;;;;;5007449;28;20058;-70
2024/03/06 14:10:40;;;;;;;4.88;4.20;;;;;;;;;;5000069;28;20029;-71
2024/03/06 14:13:08;;;;;;;6.78;4.00;;;;;;;;;;4980930;28;20099;-73
2024/03/06 14:15:34;;;;;;;6.60;3.80;;;;;;;;;;5000034;28;20049;-72
2024/03/06 14:18:01;;;;;;;6.40;3.80;;;;;;;;;;4997985;28;20042;-71
2024/03/06 14:20:28;;;;;;;10.65;4.28;;;;;;;;;;5000175;28;20044;-72
2024/03/06 14:22:55;;;;;;;10.88;4.15;;;;;;;;;;5003947;28;20069;-73
2024/03/06 14:25:20;;;;;;;10.00;3.47;;;;;;;;;;5001267;28;20036;-71
2024/03/06 14:27:47;;;;;;;7.40;3.78;;;;;;;;;;5002658;28;20053;-72
2024/03/06 14:30:14;;;;;;;10.07;3.63;;;;;;;;;;5018325;28;20029;-71
2024/03/06 14:32:40;;;;;;;5.57;3.15;;;;;;;;;;5021832;28;20116;-72
2024/03/06 14:35:06;;;;;;;7.75;3.83;;;;;;;;;;5009184;28;20041;-72
2024/03/06 14:37:32;;;;;;;6.90;3.50;;;;;;;;;;5016486;27;20053;-72